Agency, Iowa
Current Conditions -  °F | °C
As of 9:53 AM on Sunday 21 Dec 2014 (Local Time) from KOTM Reporting Station
Overcast Overcast  
Wind Chill: -1°   Ceiling: 1800
Heat Index:   Visibility: 8mi
Dew Point:   Wind: 16mph
Humidity: 82%   Direction: 170°S
Pressure: 30.02"   Gusts: NA
Location:  41°N, 92.31°W
Report Text: KOTM 211553Z AUTO 17014KT 8SM OVC018 04/01 A3002 RMK AO2 SLP172 T00390011
Loading
Personal Weather Stations






























Interactive Weather Map New forecast layout! Learn more

10-Day Weather Forecast

Advertisements
Track Severe Weather on mobile